Abbotsford, WI

2:54 AM CST on February 07, 2016 (GMT -0600)
Taylor County | | Change Station
CLOSE
Current Station
Airport
Location: Medford,
Elevation: 1470 ft
Nearby Weather Stations

Elev 1470 ft 45.10 °N, 90.30 °W | Updated 19 minutes ago

Overcast
Overcast
29 °F
Feels Like 19 °F
N
12
Wind Variable Wind from South

Today
High -- | Low -- °F
--% Chance of Precip.
Yesterday
High -- | Low -- °F
Precip. -- in
Pressure 29.67 in
Visibility 7.0 miles
Clouds Overcast 900 ft
Windchill 19 °F
Dew Point 28 °F
Humidity 95%
Rainfall 0.00 in
Snow Depth Not available.
7:14 AM 5:17 PM
Waning Crescent, 2% visible
METAR KMDZ 070835Z AUTO 18010KT 7SM OVC009 M02/M02 A2967 RMK AO2 T10161023
Pressure 29.67 in
Visibility 7.0 miles
Clouds Overcast 900 ft
Windchill 19 °F
Dew Point 28 °F
Humidity 95%
Rainfall 0.00 in
Snow Depth Not available.
7:14 AM 5:17 PM
Waning Crescent, 2% visible
METAR KMDZ 070835Z AUTO 18010KT 7SM OVC009 M02/M02 A2967 RMK AO2 T10161023

10-Day Weather Forecast

Almanac

Astronomy

Feb. 07, 2016 Rise Set
Actual Time
Civil Twilight
Nautical Twilight
Astronomical Twilight
Moon
Length of Visible Light
Length of Day
Tomorrow will be .
, % of the Moon is Illuminated

Today's Extremes

State Highs State Lows

Community

WunderPhotos

Upload Photos

1,891,171 photos uploaded!

WunderBlog® & News

Nearby

Air Quality

  Air Quality AQ Index Pollutant
Not available.

Snow Depth

Station Depth Elevation

Earthquake Activity

City Distance Mag. Time & Date
Minimum magnitude displayed is 2.5.

Coastal Water Temperatures

Place Temperature

Stations

Nearby Weather Stations

Station Location Temp. Windchill Dew Point Humidity Wind Precip. Elev Updated Type
                   

Watches & Warnings

There are currently no watches in effect.